sensor_id;sensor_type;location;lat;lon;timestamp;temperature;humidity
4673;DHT22;61885;53.560;9.940;2024-03-25T00:00:03;5.40;96.90
4673;DHT22;61885;53.560;9.940;2024-03-25T00:02:05;5.40;95.70
4673;DHT22;61885;53.560;9.940;2024-03-25T00:04:06;5.30;96.00
4673;DHT22;61885;53.560;9.940;2024-03-25T00:06:07;5.50;96.00
4673;DHT22;61885;53.560;9.940;2024-03-25T00:08:11;5.20;95.70
4673;DHT22;61885;53.560;9.940;2024-03-25T00:10:12;5.50;95.50
4673;DHT22;61885;53.560;9.940;2024-03-25T00:12:13;5.50;95.30
4673;DHT22;61885;53.560;9.940;2024-03-25T00:14:14;5.60;95.20
4673;DHT22;61885;53.560;9.940;2024-03-25T00:16:16;5.40;95.10
4673;DHT22;61885;53.560;9.940;2024-03-25T00:18:17;5.50;94.90
4673;DHT22;61885;53.560;9.940;2024-03-25T00:20:18;5.30;94.50
4673;DHT22;61885;53.560;9.940;2024-03-25T00:22:21;5.40;94.40
4673;DHT22;61885;53.560;9.940;2024-03-25T00:24:24;5.50;94.40
4673;DHT22;61885;53.560;9.940;2024-03-25T00:26:25;5.50;94.00
4673;DHT22;61885;53.560;9.940;2024-03-25T00:28:26;5.40;94.30
4673;DHT22;61885;53.560;9.940;2024-03-25T00:30:28;5.50;94.00
4673;DHT22;61885;53.560;9.940;2024-03-25T00:32:29;5.60;94.20
4673;DHT22;61885;53.560;9.940;2024-03-25T00:34:31;5.50;93.70
4673;DHT22;61885;53.560;9.940;2024-03-25T00:36:32;5.40;94.10
4673;DHT22;61885;53.560;9.940;2024-03-25T00:38:34;5.40;94.30
4673;DHT22;61885;53.560;9.940;2024-03-25T00:40:37;5.40;94.80
4673;DHT22;61885;53.560;9.940;2024-03-25T00:42:38;5.30;95.80
4673;DHT22;61885;53.560;9.940;2024-03-25T00:44:39;5.20;96.50
4673;DHT22;61885;53.560;9.940;2024-03-25T00:46:41;5.20;97.20
4673;DHT22;61885;53.560;9.940;2024-03-25T00:48:42;5.20;97.60
4673;DHT22;61885;53.560;9.940;2024-03-25T00:50:44;5.20;97.70
4673;DHT22;61885;53.560;9.940;2024-03-25T00:52:46;5.10;97.70
4673;DHT22;61885;53.560;9.940;2024-03-25T00:54:47;5.10;97.90
4673;DHT22;61885;53.560;9.940;2024-03-25T00:56:50;5.10;98.30
4673;DHT22;61885;53.560;9.940;2024-03-25T00:58:54;5.10;98.30
4673;DHT22;61885;53.560;9.940;2024-03-25T01:00:55;5.20;98.40
4673;DHT22;61885;53.560;9.940;2024-03-25T01:02:56;5.10;98.30
4673;DHT22;61885;53.560;9.940;2024-03-25T01:04:57;5.20;98.40
4673;DHT22;61885;53.560;9.940;2024-03-25T01:07:00;5.30;98.30
4673;DHT22;61885;53.560;9.940;2024-03-25T01:09:01;5.10;98.40
4673;DHT22;61885;53.560;9.940;2024-03-25T01:11:04;5.10;98.60
4673;DHT22;61885;53.560;9.940;2024-03-25T01:13:06;5.40;98.60
4673;DHT22;61885;53.560;9.940;2024-03-25T01:15:08;5.20;98.90
4673;DHT22;61885;53.560;9.940;2024-03-25T01:17:10;5.40;98.50
4673;DHT22;61885;53.560;9.940;2024-03-25T01:19:12;5.20;98.50
4673;DHT22;61885;53.560;9.940;2024-03-25T01:21:13;5.30;98.20
4673;DHT22;61885;53.560;9.940;2024-03-25T01:23:15;5.30;98.40
4673;DHT22;61885;53.560;9.940;2024-03-25T01:25:16;5.40;98.40
4673;DHT22;61885;53.560;9.940;2024-03-25T01:27:18;5.40;98.40
4673;DHT22;61885;53.560;9.940;2024-03-25T01:29:20;5.40;98.40
4673;DHT22;61885;53.560;9.940;2024-03-25T01:31:22;5.40;98.20
4673;DHT22;61885;53.560;9.940;2024-03-25T01:33:23;5.40;98.20
4673;DHT22;61885;53.560;9.940;2024-03-25T01:35:26;5.40;98.30
4673;DHT22;61885;53.560;9.940;2024-03-25T01:37:27;5.30;98.30
4673;DHT22;61885;53.560;9.940;2024-03-25T01:39:29;5.50;98.30
4673;DHT22;61885;53.560;9.940;2024-03-25T01:41:30;5.50;98.40
4673;DHT22;61885;53.560;9.940;2024-03-25T01:43:32;5.40;98.40
4673;DHT22;61885;53.560;9.940;2024-03-25T01:45:35;5.50;98.40
4673;DHT22;61885;53.560;9.940;2024-03-25T01:47:37;5.50;98.50
4673;DHT22;61885;53.560;9.940;2024-03-25T01:49:40;5.50;98.40
4673;DHT22;61885;53.560;9.940;2024-03-25T01:51:42;5.50;98.30
4673;DHT22;61885;53.560;9.940;2024-03-25T01:53:43;5.50;98.10
4673;DHT22;61885;53.560;9.940;2024-03-25T01:55:46;5.50;98.20
4673;DHT22;61885;53.560;9.940;2024-03-25T01:57:49;5.60;98.10
4673;DHT22;61885;53.560;9.940;2024-03-25T01:59:51;5.60;98.10
4673;DHT22;61885;53.560;9.940;2024-03-25T02:01:54;5.60;98.00
4673;DHT22;61885;53.560;9.940;2024-03-25T02:03:56;5.60;97.50
4673;DHT22;61885;53.560;9.940;2024-03-25T02:06:00;5.60;98.00
4673;DHT22;61885;53.560;9.940;2024-03-25T02:08:03;5.70;97.90
4673;DHT22;61885;53.560;9.940;2024-03-25T02:10:07;5.70;97.80
4673;DHT22;61885;53.560;9.940;2024-03-25T02:12:10;5.70;97.90
4673;DHT22;61885;53.560;9.940;2024-03-25T02:14:12;5.60;97.60
4673;DHT22;61885;53.560;9.940;2024-03-25T02:16:14;5.70;97.80
4673;DHT22;61885;53.560;9.940;2024-03-25T02:18:17;5.60;97.90
4673;DHT22;61885;53.560;9.940;2024-03-25T02:20:18;5.70;97.60
4673;DHT22;61885;53.560;9.940;2024-03-25T02:22:20;5.60;97.20
4673;DHT22;61885;53.560;9.940;2024-03-25T02:24:23;5.70;97.30
4673;DHT22;61885;53.560;9.940;2024-03-25T02:26:29;5.70;97.20
4673;DHT22;61885;53.560;9.940;2024-03-25T02:28:30;5.70;97.00
4673;DHT22;61885;53.560;9.940;2024-03-25T02:30:32;5.60;96.50
4673;DHT22;61885;53.560;9.940;2024-03-25T02:32:33;5.60;96.30
4673;DHT22;61885;53.560;9.940;2024-03-25T02:34:35;5.60;96.70
4673;DHT22;61885;53.560;9.940;2024-03-25T02:36:36;5.50;96.30
4673;DHT22;61885;53.560;9.940;2024-03-25T02:38:37;5.50;96.10
4673;DHT22;61885;53.560;9.940;2024-03-25T02:40:38;5.50;96.50
4673;DHT22;61885;53.560;9.940;2024-03-25T02:42:42;5.50;96.30
4673;DHT22;61885;53.560;9.940;2024-03-25T02:44:43;5.50;96.30
4673;DHT22;61885;53.560;9.940;2024-03-25T02:46:44;5.30;95.90
4673;DHT22;61885;53.560;9.940;2024-03-25T02:48:46;5.50;96.20
4673;DHT22;61885;53.560;9.940;2024-03-25T02:50:47;5.50;96.30
4673;DHT22;61885;53.560;9.940;2024-03-25T02:52:49;5.40;96.10
4673;DHT22;61885;53.560;9.940;2024-03-25T02:54:49;5.30;95.80
4673;DHT22;61885;53.560;9.940;2024-03-25T02:56:52;5.30;95.70
4673;DHT22;61885;53.560;9.940;2024-03-25T02:58:54;5.60;95.60
4673;DHT22;61885;53.560;9.940;2024-03-25T03:00:56;5.40;95.50
4673;DHT22;61885;53.560;9.940;2024-03-25T03:02:57;5.50;95.60
4673;DHT22;61885;53.560;9.940;2024-03-25T03:04:59;5.50;95.90
4673;DHT22;61885;53.560;9.940;2024-03-25T03:07:00;5.40;95.60
4673;DHT22;61885;53.560;9.940;2024-03-25T03:09:01;5.50;95.70
4673;DHT22;61885;53.560;9.940;2024-03-25T03:11:02;5.40;95.80
4673;DHT22;61885;53.560;9.940;2024-03-25T03:13:04;5.30;95.50
4673;DHT22;61885;53.560;9.940;2024-03-25T03:15:07;5.40;95.70
4673;DHT22;61885;53.560;9.940;2024-03-25T03:17:08;5.40;95.60
4673;DHT22;61885;53.560;9.940;2024-03-25T03:19:45;5.40;95.70
4673;DHT22;61885;53.560;9.940;2024-03-25T03:21:47;5.60;95.30
4673;DHT22;61885;53.560;9.940;2024-03-25T03:23:48;5.50;95.10
4673;DHT22;61885;53.560;9.940;2024-03-25T03:25:49;5.40;95.00
4673;DHT22;61885;53.560;9.940;2024-03-25T03:27:50;5.40;94.80
4673;DHT22;61885;53.560;9.940;2024-03-25T03:29:52;5.30;94.80
4673;DHT22;61885;53.560;9.940;2024-03-25T03:31:54;5.30;94.80
4673;DHT22;61885;53.560;9.940;2024-03-25T03:33:56;5.40;94.90
4673;DHT22;61885;53.560;9.940;2024-03-25T03:35:57;5.50;95.10
4673;DHT22;61885;53.560;9.940;2024-03-25T03:37:59;5.20;95.20
4673;DHT22;61885;53.560;9.940;2024-03-25T03:39:59;5.20;95.30
4673;DHT22;61885;53.560;9.940;2024-03-25T03:42:01;5.30;95.20
4673;DHT22;61885;53.560;9.940;2024-03-25T03:44:02;5.40;95.20
4673;DHT22;61885;53.560;9.940;2024-03-25T03:46:04;5.30;95.20
4673;DHT22;61885;53.560;9.940;2024-03-25T03:48:07;5.20;95.10
4673;DHT22;61885;53.560;9.940;2024-03-25T03:50:09;5.30;94.80
4673;DHT22;61885;53.560;9.940;2024-03-25T03:52:10;5.30;94.90
4673;DHT22;61885;53.560;9.940;2024-03-25T03:54:12;5.30;94.80
4673;DHT22;61885;53.560;9.940;2024-03-25T03:56:14;5.10;94.50
4673;DHT22;61885;53.560;9.940;2024-03-25T03:58:16;5.20;94.20
4673;DHT22;61885;53.560;9.940;2024-03-25T04:00:17;5.30;93.80
4673;DHT22;61885;53.560;9.940;2024-03-25T04:02:18;5.40;93.90
4673;DHT22;61885;53.560;9.940;2024-03-25T04:04:21;5.20;93.50
4673;DHT22;61885;53.560;9.940;2024-03-25T04:06:22;5.20;93.40
4673;DHT22;61885;53.560;9.940;2024-03-25T04:08:24;5.30;93.60
4673;DHT22;61885;53.560;9.940;2024-03-25T04:10:27;5.20;93.40
4673;DHT22;61885;53.560;9.940;2024-03-25T04:12:29;5.40;93.20
4673;DHT22;61885;53.560;9.940;2024-03-25T04:14:30;5.30;93.40
4673;DHT22;61885;53.560;9.940;2024-03-25T04:16:32;5.30;93.20
4673;DHT22;61885;53.560;9.940;2024-03-25T04:18:33;5.30;93.50
4673;DHT22;61885;53.560;9.940;2024-03-25T04:20:41;5.30;92.90
4673;DHT22;61885;53.560;9.940;2024-03-25T04:22:42;5.40;93.10
4673;DHT22;61885;53.560;9.940;2024-03-25T04:24:44;5.40;93.10
4673;DHT22;61885;53.560;9.940;2024-03-25T04:26:45;5.40;93.10
4673;DHT22;61885;53.560;9.940;2024-03-25T04:28:46;5.30;93.10
4673;DHT22;61885;53.560;9.940;2024-03-25T04:30:51;5.50;93.10
4673;DHT22;61885;53.560;9.940;2024-03-25T04:32:54;5.40;93.10
4673;DHT22;61885;53.560;9.940;2024-03-25T04:34:54;5.40;93.30
4673;DHT22;61885;53.560;9.940;2024-03-25T04:36:57;5.10;93.90
4673;DHT22;61885;53.560;9.940;2024-03-25T04:38:59;5.30;94.30
4673;DHT22;61885;53.560;9.940;2024-03-25T04:40:59;5.10;94.50
4673;DHT22;61885;53.560;9.940;2024-03-25T04:43:00;5.10;94.70
4673;DHT22;61885;53.560;9.940;2024-03-25T04:45:01;5.20;94.70
4673;DHT22;61885;53.560;9.940;2024-03-25T04:47:02;5.00;95.00
4673;DHT22;61885;53.560;9.940;2024-03-25T04:49:03;5.10;95.00
4673;DHT22;61885;53.560;9.940;2024-03-25T04:51:04;5.10;95.00
4673;DHT22;61885;53.560;9.940;2024-03-25T04:53:07;5.20;95.00
4673;DHT22;61885;53.560;9.940;2024-03-25T04:55:08;5.30;95.20
4673;DHT22;61885;53.560;9.940;2024-03-25T04:57:09;5.30;95.00
4673;DHT22;61885;53.560;9.940;2024-03-25T04:59:10;5.10;95.00
4673;DHT22;61885;53.560;9.940;2024-03-25T05:01:11;5.20;95.30
4673;DHT22;61885;53.560;9.940;2024-03-25T05:03:11;5.30;95.20
4673;DHT22;61885;53.560;9.940;2024-03-25T05:05:12;5.20;95.70
4673;DHT22;61885;53.560;9.940;2024-03-25T05:07:13;5.10;95.70
4673;DHT22;61885;53.560;9.940;2024-03-25T05:09:15;4.90;95.70
4673;DHT22;61885;53.560;9.940;2024-03-25T05:11:17;5.10;95.50
4673;DHT22;61885;53.560;9.940;2024-03-25T05:13:17;5.10;95.70
4673;DHT22;61885;53.560;9.940;2024-03-25T05:15:18;5.00;95.70
4673;DHT22;61885;53.560;9.940;2024-03-25T05:17:19;4.90;96.00
4673;DHT22;61885;53.560;9.940;2024-03-25T05:19:20;4.70;96.10
4673;DHT22;61885;53.560;9.940;2024-03-25T05:21:21;4.80;96.70
4673;DHT22;61885;53.560;9.940;2024-03-25T05:23:22;4.90;96.50
4673;DHT22;61885;53.560;9.940;2024-03-25T05:25:24;4.60;96.60
4673;DHT22;61885;53.560;9.940;2024-03-25T05:27:25;4.80;97.10
4673;DHT22;61885;53.560;9.940;2024-03-25T05:29:26;4.60;97.10
4673;DHT22;61885;53.560;9.940;2024-03-25T05:31:27;4.80;97.30
4673;DHT22;61885;53.560;9.940;2024-03-25T05:33:28;4.70;97.30
4673;DHT22;61885;53.560;9.940;2024-03-25T05:35:29;4.60;97.30
4673;DHT22;61885;53.560;9.940;2024-03-25T05:37:30;4.50;97.60
4673;DHT22;61885;53.560;9.940;2024-03-25T05:39:31;4.60;97.90
4673;DHT22;61885;53.560;9.940;2024-03-25T05:41:33;4.70;98.00
4673;DHT22;61885;53.560;9.940;2024-03-25T05:43:34;4.50;97.80
4673;DHT22;61885;53.560;9.940;2024-03-25T05:45:35;4.60;97.90
4673;DHT22;61885;53.560;9.940;2024-03-25T05:47:36;4.50;97.70
4673;DHT22;61885;53.560;9.940;2024-03-25T05:49:37;4.70;97.70
4673;DHT22;61885;53.560;9.940;2024-03-25T05:51:38;4.50;97.70
4673;DHT22;61885;53.560;9.940;2024-03-25T05:53:39;4.60;97.40
4673;DHT22;61885;53.560;9.940;2024-03-25T05:55:40;4.70;97.40
4673;DHT22;61885;53.560;9.940;2024-03-25T05:57:42;4.70;97.40
4673;DHT22;61885;53.560;9.940;2024-03-25T05:59:43;4.80;97.10
4673;DHT22;61885;53.560;9.940;2024-03-25T06:01:44;4.80;97.00
4673;DHT22;61885;53.560;9.940;2024-03-25T06:03:45;4.90;96.70
4673;DHT22;61885;53.560;9.940;2024-03-25T06:05:46;4.80;96.50
4673;DHT22;61885;53.560;9.940;2024-03-25T06:07:47;4.80;96.40
4673;DHT22;61885;53.560;9.940;2024-03-25T06:09:48;5.00;95.50
4673;DHT22;61885;53.560;9.940;2024-03-25T06:11:49;5.00;95.60
4673;DHT22;61885;53.560;9.940;2024-03-25T06:13:52;5.00;95.70
4673;DHT22;61885;53.560;9.940;2024-03-25T06:15:52;5.20;95.50
4673;DHT22;61885;53.560;9.940;2024-03-25T06:17:53;5.10;95.50
4673;DHT22;61885;53.560;9.940;2024-03-25T06:19:54;5.20;95.80
4673;DHT22;61885;53.560;9.940;2024-03-25T06:21:56;5.20;95.90
4673;DHT22;61885;53.560;9.940;2024-03-25T06:23:58;5.30;95.60
4673;DHT22;61885;53.560;9.940;2024-03-25T06:25:59;5.20;95.50
4673;DHT22;61885;53.560;9.940;2024-03-25T06:28:00;5.30;95.60
4673;DHT22;61885;53.560;9.940;2024-03-25T06:30:03;5.40;95.80
4673;DHT22;61885;53.560;9.940;2024-03-25T06:32:19;5.40;95.60
4673;DHT22;61885;53.560;9.940;2024-03-25T06:34:38;5.40;95.20
4673;DHT22;61885;53.560;9.940;2024-03-25T06:36:39;5.40;95.20
4673;DHT22;61885;53.560;9.940;2024-03-25T06:38:40;5.40;95.00
4673;DHT22;61885;53.560;9.940;2024-03-25T06:40:41;5.30;94.90
4673;DHT22;61885;53.560;9.940;2024-03-25T06:42:42;5.40;95.00
4673;DHT22;61885;53.560;9.940;2024-03-25T06:44:43;5.30;94.90
4673;DHT22;61885;53.560;9.940;2024-03-25T06:46:45;5.40;95.40
4673;DHT22;61885;53.560;9.940;2024-03-25T06:48:46;5.40;95.20
4673;DHT22;61885;53.560;9.940;2024-03-25T06:50:54;5.40;95.70
4673;DHT22;61885;53.560;9.940;2024-03-25T06:52:55;5.60;95.00
4673;DHT22;61885;53.560;9.940;2024-03-25T06:54:56;5.60;94.90
4673;DHT22;61885;53.560;9.940;2024-03-25T06:56:56;5.50;94.90
4673;DHT22;61885;53.560;9.940;2024-03-25T06:58:57;5.50;94.90
4673;DHT22;61885;53.560;9.940;2024-03-25T07:01:04;5.50;95.10
4673;DHT22;61885;53.560;9.940;2024-03-25T07:03:06;5.50;94.90
4673;DHT22;61885;53.560;9.940;2024-03-25T07:05:07;5.30;95.30
4673;DHT22;61885;53.560;9.940;2024-03-25T07:07:08;5.60;94.80
4673;DHT22;61885;53.560;9.940;2024-03-25T07:09:09;5.60;94.80
4673;DHT22;61885;53.560;9.940;2024-03-25T07:11:10;5.40;94.20
4673;DHT22;61885;53.560;9.940;2024-03-25T07:13:11;5.70;94.20
4673;DHT22;61885;53.560;9.940;2024-03-25T07:15:12;5.70;94.00
4673;DHT22;61885;53.560;9.940;2024-03-25T07:17:13;5.60;94.20
4673;DHT22;61885;53.560;9.940;2024-03-25T07:19:16;5.50;95.20
4673;DHT22;61885;53.560;9.940;2024-03-25T07:21:17;5.20;95.50
4673;DHT22;61885;53.560;9.940;2024-03-25T07:23:17;5.20;96.30
4673;DHT22;61885;53.560;9.940;2024-03-25T07:25:18;5.20;97.40
4673;DHT22;61885;53.560;9.940;2024-03-25T07:27:19;5.20;97.40
4673;DHT22;61885;53.560;9.940;2024-03-25T07:29:20;5.30;97.20
4673;DHT22;61885;53.560;9.940;2024-03-25T07:31:21;5.20;97.80
4673;DHT22;61885;53.560;9.940;2024-03-25T07:33:22;5.10;97.90
4673;DHT22;61885;53.560;9.940;2024-03-25T07:35:24;5.20;98.00
4673;DHT22;61885;53.560;9.940;2024-03-25T07:37:25;5.40;98.30
4673;DHT22;61885;53.560;9.940;2024-03-25T07:39:26;5.40;98.40
4673;DHT22;61885;53.560;9.940;2024-03-25T07:41:27;5.20;97.80
4673;DHT22;61885;53.560;9.940;2024-03-25T07:43:28;5.40;98.50
4673;DHT22;61885;53.560;9.940;2024-03-25T07:45:29;5.60;98.00
4673;DHT22;61885;53.560;9.940;2024-03-25T07:47:30;5.40;98.20
4673;DHT22;61885;53.560;9.940;2024-03-25T07:49:31;5.50;98.60
4673;DHT22;61885;53.560;9.940;2024-03-25T07:51:33;5.60;98.30
4673;DHT22;61885;53.560;9.940;2024-03-25T07:53:35;5.50;98.20
4673;DHT22;61885;53.560;9.940;2024-03-25T07:55:35;5.70;98.20
4673;DHT22;61885;53.560;9.940;2024-03-25T07:57:36;5.70;97.70
4673;DHT22;61885;53.560;9.940;2024-03-25T07:59:37;5.80;97.80
4673;DHT22;61885;53.560;9.940;2024-03-25T08:01:38;5.70;96.90
4673;DHT22;61885;53.560;9.940;2024-03-25T08:03:39;5.70;97.00
4673;DHT22;61885;53.560;9.940;2024-03-25T08:05:40;5.80;97.20
4673;DHT22;61885;53.560;9.940;2024-03-25T08:07:42;5.90;97.10
4673;DHT22;61885;53.560;9.940;2024-03-25T08:09:43;5.80;97.20
4673;DHT22;61885;53.560;9.940;2024-03-25T08:11:44;5.60;96.50
4673;DHT22;61885;53.560;9.940;2024-03-25T08:13:45;5.90;96.90
4673;DHT22;61885;53.560;9.940;2024-03-25T08:15:46;5.90;96.70
4673;DHT22;61885;53.560;9.940;2024-03-25T08:17:47;5.80;96.70
4673;DHT22;61885;53.560;9.940;2024-03-25T08:19:47;6.10;96.70
4673;DHT22;61885;53.560;9.940;2024-03-25T08:21:49;6.10;96.60
4673;DHT22;61885;53.560;9.940;2024-03-25T08:23:51;6.10;96.10
4673;DHT22;61885;53.560;9.940;2024-03-25T08:25:52;6.20;95.30
4673;DHT22;61885;53.560;9.940;2024-03-25T08:27:53;6.10;94.20
4673;DHT22;61885;53.560;9.940;2024-03-25T08:29:54;6.20;94.70
4673;DHT22;61885;53.560;9.940;2024-03-25T08:31:54;6.30;94.20
4673;DHT22;61885;53.560;9.940;2024-03-25T08:33:55;6.20;92.40
4673;DHT22;61885;53.560;9.940;2024-03-25T08:35:56;6.10;92.20
4673;DHT22;61885;53.560;9.940;2024-03-25T08:37:57;6.20;91.50
4673;DHT22;61885;53.560;9.940;2024-03-25T08:39:59;6.40;91.60
4673;DHT22;61885;53.560;9.940;2024-03-25T08:42:00;6.40;91.30
4673;DHT22;61885;53.560;9.940;2024-03-25T08:44:01;6.40;91.20
4673;DHT22;61885;53.560;9.940;2024-03-25T08:46:02;6.50;91.80
4673;DHT22;61885;53.560;9.940;2024-03-25T08:48:05;6.50;89.60
4673;DHT22;61885;53.560;9.940;2024-03-25T08:50:07;6.40;90.10
4673;DHT22;61885;53.560;9.940;2024-03-25T08:52:08;6.30;91.30
4673;DHT22;61885;53.560;9.940;2024-03-25T08:54:09;6.10;90.80
4673;DHT22;61885;53.560;9.940;2024-03-25T08:56:11;6.10;90.70
4673;DHT22;61885;53.560;9.940;2024-03-25T08:58:12;5.90;90.50
4673;DHT22;61885;53.560;9.940;2024-03-25T09:00:14;5.80;90.90
4673;DHT22;61885;53.560;9.940;2024-03-25T09:02:15;5.80;89.90
4673;DHT22;61885;53.560;9.940;2024-03-25T09:04:16;5.70;90.20
4673;DHT22;61885;53.560;9.940;2024-03-25T09:06:17;5.60;89.50
4673;DHT22;61885;53.560;9.940;2024-03-25T09:08:18;5.80;90.10
4673;DHT22;61885;53.560;9.940;2024-03-25T09:10:19;6.00;90.30
4673;DHT22;61885;53.560;9.940;2024-03-25T09:12:40;6.00;90.10
4673;DHT22;61885;53.560;9.940;2024-03-25T09:14:40;6.10;89.20
4673;DHT22;61885;53.560;9.940;2024-03-25T09:16:41;6.10;89.30
4673;DHT22;61885;53.560;9.940;2024-03-25T09:18:42;6.30;89.60
4673;DHT22;61885;53.560;9.940;2024-03-25T09:20:44;6.40;88.70
4673;DHT22;61885;53.560;9.940;2024-03-25T09:22:45;6.60;87.70
4673;DHT22;61885;53.560;9.940;2024-03-25T09:24:46;6.60;87.40
4673;DHT22;61885;53.560;9.940;2024-03-25T09:26:49;6.60;87.20
4673;DHT22;61885;53.560;9.940;2024-03-25T09:28:52;6.70;87.60
4673;DHT22;61885;53.560;9.940;2024-03-25T09:30:53;7.00;87.10
4673;DHT22;61885;53.560;9.940;2024-03-25T09:32:53;7.10;86.30
4673;DHT22;61885;53.560;9.940;2024-03-25T09:34:54;7.30;85.80
4673;DHT22;61885;53.560;9.940;2024-03-25T09:36:55;7.30;85.30
4673;DHT22;61885;53.560;9.940;2024-03-25T09:38:56;7.40;85.90
4673;DHT22;61885;53.560;9.940;2024-03-25T09:40:57;7.50;84.90
4673;DHT22;61885;53.560;9.940;2024-03-25T09:43:02;7.40;85.30
4673;DHT22;61885;53.560;9.940;2024-03-25T09:45:06;7.60;85.20
4673;DHT22;61885;53.560;9.940;2024-03-25T09:47:08;7.60;83.50
4673;DHT22;61885;53.560;9.940;2024-03-25T09:49:09;7.70;83.60
4673;DHT22;61885;53.560;9.940;2024-03-25T09:51:10;7.80;82.10
4673;DHT22;61885;53.560;9.940;2024-03-25T09:53:11;7.70;81.50
4673;DHT22;61885;53.560;9.940;2024-03-25T09:55:12;7.60;83.30
4673;DHT22;61885;53.560;9.940;2024-03-25T09:57:14;7.10;85.60
4673;DHT22;61885;53.560;9.940;2024-03-25T09:59:15;6.70;87.00
4673;DHT22;61885;53.560;9.940;2024-03-25T10:01:18;6.50;89.80
4673;DHT22;61885;53.560;9.940;2024-03-25T10:03:19;6.30;90.20
4673;DHT22;61885;53.560;9.940;2024-03-25T10:05:20;6.30;91.20
4673;DHT22;61885;53.560;9.940;2024-03-25T10:07:22;6.20;89.60
4673;DHT22;61885;53.560;9.940;2024-03-25T10:09:23;6.30;88.50
4673;DHT22;61885;53.560;9.940;2024-03-25T10:11:25;6.30;88.20
4673;DHT22;61885;53.560;9.940;2024-03-25T10:13:26;6.30;88.70
4673;DHT22;61885;53.560;9.940;2024-03-25T10:15:27;6.30;88.80
4673;DHT22;61885;53.560;9.940;2024-03-25T10:17:30;6.30;88.60
4673;DHT22;61885;53.560;9.940;2024-03-25T10:19:31;6.30;87.80
4673;DHT22;61885;53.560;9.940;2024-03-25T10:21:32;6.10;88.00
4673;DHT22;61885;53.560;9.940;2024-03-25T10:23:32;6.20;86.70
4673;DHT22;61885;53.560;9.940;2024-03-25T10:25:34;6.20;86.50
4673;DHT22;61885;53.560;9.940;2024-03-25T10:27:34;6.30;85.20
4673;DHT22;61885;53.560;9.940;2024-03-25T10:29:35;6.40;85.40
4673;DHT22;61885;53.560;9.940;2024-03-25T10:31:36;6.40;83.80
4673;DHT22;61885;53.560;9.940;2024-03-25T10:33:38;6.70;84.20
4673;DHT22;61885;53.560;9.940;2024-03-25T10:35:40;6.70;82.80
4673;DHT22;61885;53.560;9.940;2024-03-25T10:37:43;6.90;81.00
4673;DHT22;61885;53.560;9.940;2024-03-25T10:39:48;7.20;79.60
4673;DHT22;61885;53.560;9.940;2024-03-25T10:41:49;7.30;78.60
4673;DHT22;61885;53.560;9.940;2024-03-25T10:43:52;7.40;77.40
4673;DHT22;61885;53.560;9.940;2024-03-25T10:45:55;7.50;77.80
4673;DHT22;61885;53.560;9.940;2024-03-25T10:47:59;7.50;77.90
4673;DHT22;61885;53.560;9.940;2024-03-25T10:50:08;7.20;77.10
4673;DHT22;61885;53.560;9.940;2024-03-25T10:52:11;7.20;77.80
4673;DHT22;61885;53.560;9.940;2024-03-25T10:54:13;7.30;78.00
4673;DHT22;61885;53.560;9.940;2024-03-25T10:56:15;7.20;79.20
4673;DHT22;61885;53.560;9.940;2024-03-25T10:58:17;7.40;79.00
4673;DHT22;61885;53.560;9.940;2024-03-25T11:00:18;7.60;79.50
4673;DHT22;61885;53.560;9.940;2024-03-25T11:02:20;7.80;79.80
4673;DHT22;61885;53.560;9.940;2024-03-25T11:04:21;8.00;79.70
4673;DHT22;61885;53.560;9.940;2024-03-25T11:06:24;8.30;77.80
4673;DHT22;61885;53.560;9.940;2024-03-25T11:08:30;8.60;77.00
4673;DHT22;61885;53.560;9.940;2024-03-25T11:10:32;8.50;75.90
4673;DHT22;61885;53.560;9.940;2024-03-25T11:12:34;8.50;75.60
4673;DHT22;61885;53.560;9.940;2024-03-25T11:14:35;8.60;74.90
4673;DHT22;61885;53.560;9.940;2024-03-25T11:16:36;8.50;73.90
4673;DHT22;61885;53.560;9.940;2024-03-25T11:18:37;8.20;74.00
4673;DHT22;61885;53.560;9.940;2024-03-25T11:20:39;8.30;75.30
4673;DHT22;61885;53.560;9.940;2024-03-25T11:22:49;8.20;76.30
4673;DHT22;61885;53.560;9.940;2024-03-25T11:24:50;8.10;76.90
4673;DHT22;61885;53.560;9.940;2024-03-25T11:26:52;8.10;76.80
4673;DHT22;61885;53.560;9.940;2024-03-25T11:28:53;8.10;76.20
4673;DHT22;61885;53.560;9.940;2024-03-25T11:30:55;8.20;75.30
4673;DHT22;61885;53.560;9.940;2024-03-25T11:32:56;8.30;75.70
4673;DHT22;61885;53.560;9.940;2024-03-25T11:34:58;8.30;74.50
4673;DHT22;61885;53.560;9.940;2024-03-25T11:36:59;8.40;74.50
4673;DHT22;61885;53.560;9.940;2024-03-25T11:39:02;8.40;73.00
4673;DHT22;61885;53.560;9.940;2024-03-25T11:41:04;8.40;73.60
4673;DHT22;61885;53.560;9.940;2024-03-25T11:43:05;8.50;73.60
4673;DHT22;61885;53.560;9.940;2024-03-25T11:45:07;8.60;73.10
4673;DHT22;61885;53.560;9.940;2024-03-25T11:47:08;8.80;72.30
4673;DHT22;61885;53.560;9.940;2024-03-25T11:49:12;8.80;72.40
4673;DHT22;61885;53.560;9.940;2024-03-25T11:51:16;8.90;71.10
4673;DHT22;61885;53.560;9.940;2024-03-25T11:53:17;8.90;70.60
4673;DHT22;61885;53.560;9.940;2024-03-25T11:55:20;9.00;70.70
4673;DHT22;61885;53.560;9.940;2024-03-25T11:57:21;9.00;70.30
4673;DHT22;61885;53.560;9.940;2024-03-25T11:59:22;8.90;71.00
4673;DHT22;61885;53.560;9.940;2024-03-25T12:01:23;8.90;71.50
4673;DHT22;61885;53.560;9.940;2024-03-25T12:03:24;8.70;72.30
4673;DHT22;61885;53.560;9.940;2024-03-25T12:05:25;8.50;72.60
4673;DHT22;61885;53.560;9.940;2024-03-25T12:07:26;8.40;73.20
4673;DHT22;61885;53.560;9.940;2024-03-25T12:09:26;8.40;73.40
4673;DHT22;61885;53.560;9.940;2024-03-25T12:11:47;8.50;73.40
4673;DHT22;61885;53.560;9.940;2024-03-25T12:13:48;8.50;73.40
4673;DHT22;61885;53.560;9.940;2024-03-25T12:15:49;8.70;72.90
4673;DHT22;61885;53.560;9.940;2024-03-25T12:17:51;8.70;73.10
4673;DHT22;61885;53.560;9.940;2024-03-25T12:19:59;8.90;73.20
4673;DHT22;61885;53.560;9.940;2024-03-25T12:22:00;9.00;73.00
4673;DHT22;61885;53.560;9.940;2024-03-25T12:24:01;9.10;72.50
4673;DHT22;61885;53.560;9.940;2024-03-25T12:26:03;9.20;71.40
4673;DHT22;61885;53.560;9.940;2024-03-25T12:28:09;9.10;72.00
4673;DHT22;61885;53.560;9.940;2024-03-25T12:30:11;9.10;72.40
4673;DHT22;61885;53.560;9.940;2024-03-25T12:32:12;9.00;72.60
4673;DHT22;61885;53.560;9.940;2024-03-25T12:34:13;8.80;74.90
4673;DHT22;61885;53.560;9.940;2024-03-25T12:36:14;8.70;75.70
4673;DHT22;61885;53.560;9.940;2024-03-25T12:38:24;8.50;75.70
4673;DHT22;61885;53.560;9.940;2024-03-25T12:40:26;8.40;76.10
4673;DHT22;61885;53.560;9.940;2024-03-25T12:42:27;8.50;76.00
4673;DHT22;61885;53.560;9.940;2024-03-25T12:44:32;8.90;76.00
4673;DHT22;61885;53.560;9.940;2024-03-25T12:46:33;9.30;74.80
4673;DHT22;61885;53.560;9.940;2024-03-25T12:48:33;9.60;74.10
4673;DHT22;61885;53.560;9.940;2024-03-25T12:50:34;9.60;74.30
4673;DHT22;61885;53.560;9.940;2024-03-25T12:52:35;9.70;72.50
4673;DHT22;61885;53.560;9.940;2024-03-25T12:54:37;9.80;73.50
4673;DHT22;61885;53.560;9.940;2024-03-25T12:56:38;10.20;73.50
4673;DHT22;61885;53.560;9.940;2024-03-25T12:58:38;10.40;71.10
4673;DHT22;61885;53.560;9.940;2024-03-25T13:00:41;10.80;69.50
4673;DHT22;61885;53.560;9.940;2024-03-25T13:02:42;11.00;69.00
4673;DHT22;61885;53.560;9.940;2024-03-25T13:04:43;11.30;68.80
4673;DHT22;61885;53.560;9.940;2024-03-25T13:06:44;12.00;67.20
4673;DHT22;61885;53.560;9.940;2024-03-25T13:08:45;11.90;64.80
4673;DHT22;61885;53.560;9.940;2024-03-25T13:10:46;11.30;64.60
4673;DHT22;61885;53.560;9.940;2024-03-25T13:12:47;10.80;66.70
4673;DHT22;61885;53.560;9.940;2024-03-25T13:14:48;10.20;69.40